Time;durP1;ratioP1;P1;durP2;ratioP2;P2;SDS_P1;SDS_P2;PMS_P1;PMS_P2;Temp;Humidity;BMP_temperature;BMP_pressure;BME280_temperature;BME280_humidity;BME280_pressure;Samples;Min_cycle;Max_cycle;Signal;HPM_P1;HPM_P2
2022/04/25 00:02:21;;;;;;;6.05;1.13;;;;;;;11.17;68.75;100949.66;7390137;19;20341;-65
2022/04/25 00:04:48;;;;;;;3.90;1.25;;;;;;;11.15;69.04;100947.19;7389070;19;20021;-64
2022/04/25 00:07:16;;;;;;;6.35;1.15;;;;;;;11.15;68.83;100942.75;7386954;19;20014;-63
2022/04/25 00:09:44;;;;;;;8.48;1.30;;;;;;;11.19;69.11;100953.78;7386872;19;20315;-65
2022/04/25 00:12:11;;;;;;;7.55;2.05;;;;;;;11.10;69.65;100949.44;7387428;19;20403;-63
2022/04/25 00:14:38;;;;;;;6.63;1.45;;;;;;;11.05;70.25;100955.19;7384860;19;20351;-65
2022/04/25 00:17:05;;;;;;;6.03;1.30;;;;;;;11.04;70.32;100955.31;7386648;19;20444;-66
2022/04/25 00:19:31;;;;;;;7.57;1.73;;;;;;;11.03;70.80;100953.66;7384068;19;20010;-65
2022/04/25 00:21:58;;;;;;;6.25;1.48;;;;;;;10.97;71.06;100944.56;7388666;19;20010;-65
2022/04/25 00:24:25;;;;;;;5.63;1.63;;;;;;;10.94;71.30;100949.31;7386747;19;20082;-69
2022/04/25 00:26:52;;;;;;;5.88;1.10;;;;;;;10.97;71.20;100952.47;7384962;19;20317;-67
2022/04/25 00:29:19;;;;;;;5.55;1.73;;;;;;;11.00;71.33;100940.81;7388622;19;20481;-65
2022/04/25 00:31:46;;;;;;;6.90;2.00;;;;;;;11.00;71.70;100943.44;7387043;19;20045;-65
2022/04/25 00:34:13;;;;;;;7.38;2.25;;;;;;;11.02;72.10;100950.19;7386315;19;20021;-64
2022/04/25 00:36:40;;;;;;;8.15;1.48;;;;;;;11.06;71.92;100956.84;7388468;19;20324;-66
2022/04/25 00:39:07;;;;;;;5.20;1.60;;;;;;;11.01;71.86;100948.56;7386997;19;20117;-65
2022/04/25 00:41:33;;;;;;;5.38;1.38;;;;;;;10.94;72.25;100949.31;7383560;19;20508;-67
2022/04/25 00:44:00;;;;;;;5.28;1.75;;;;;;;10.91;72.63;100947.00;7386046;19;20014;-67
2022/04/25 00:46:27;;;;;;;4.65;1.30;;;;;;;10.89;72.69;100944.50;7384529;19;20010;-67
2022/04/25 00:48:54;;;;;;;5.80;1.85;;;;;;;10.87;73.48;100950.91;7383383;19;20011;-65
2022/04/25 00:51:21;;;;;;;12.02;1.90;;;;;;;10.87;73.37;100958.81;7389694;19;20022;-67
2022/04/25 00:53:48;;;;;;;5.18;1.70;;;;;;;10.89;73.21;100955.03;7384748;19;20010;-64
2022/04/25 00:56:16;;;;;;;9.13;1.65;;;;;;;10.94;73.38;100957.22;7387708;19;20015;-66
2022/04/25 00:58:44;;;;;;;6.35;1.15;;;;;;;10.94;73.44;100946.69;7380600;19;20082;-64
2022/04/25 01:01:15;;;;;;;10.23;2.13;;;;;;;10.91;73.93;100947.81;7385850;19;20010;-64
2022/04/25 01:03:42;;;;;;;8.43;1.88;;;;;;;10.87;74.32;100946.44;7382055;19;20006;-66
2022/04/25 01:06:09;;;;;;;9.52;1.95;;;;;;;10.85;74.15;100952.88;7385039;19;20352;-66
2022/04/25 01:08:37;;;;;;;9.52;1.83;;;;;;;10.83;74.41;100947.75;7385140;19;20331;-67
2022/04/25 01:11:09;;;;;;;7.18;1.88;;;;;;;10.83;74.63;100946.91;7385433;19;20022;-66
2022/04/25 01:13:36;;;;;;;7.90;1.65;;;;;;;10.80;74.69;100944.59;7386505;19;20021;-64
2022/04/25 01:16:03;;;;;;;9.68;1.95;;;;;;;10.73;75.48;100944.34;7384171;19;20399;-65
2022/04/25 01:18:30;;;;;;;9.70;2.20;;;;;;;10.64;75.68;100937.38;7387128;19;20468;-65
2022/04/25 01:20:58;;;;;;;9.35;3.80;;;;;;;10.60;76.09;100936.84;7385287;19;20015;-65
2022/04/25 01:28:58;;;;;;;13.25;2.92;;;;;;;10.49;77.10;100942.34;7381986;19;20427;-62
2022/04/25 01:31:25;;;;;;;11.50;1.92;;;;;;;10.49;76.98;100936.25;7386351;19;20010;-67
2022/04/25 01:33:52;;;;;;;6.50;1.90;;;;;;;10.51;76.98;100934.31;7384837;19;20097;-65
2022/04/25 01:36:25;;;;;;;7.28;1.90;;;;;;;10.54;77.19;100937.44;7382737;19;20443;-66
2022/04/25 01:38:52;;;;;;;10.57;2.17;;;;;;;10.56;76.86;100934.69;7383752;19;20480;-65
2022/04/25 01:41:20;;;;;;;6.93;2.33;;;;;;;10.56;77.05;100948.66;7382350;19;20022;-64
2022/04/25 01:43:47;;;;;;;12.07;2.03;;;;;;;10.55;77.08;100943.53;7385240;19;20030;-66
2022/04/25 01:46:14;;;;;;;8.43;1.95;;;;;;;10.52;76.94;100949.09;7382715;19;20031;-64
2022/04/25 01:48:41;;;;;;;8.38;2.22;;;;;;;10.48;77.56;100942.47;7387052;19;20436;-65
2022/04/25 01:51:20;;;;;;;8.02;2.60;;;;;;;10.49;77.61;100944.97;7386307;19;20410;-64
2022/04/25 01:53:46;;;;;;;7.90;2.17;;;;;;;10.49;77.92;100941.50;7379750;19;20421;-65
2022/04/25 01:56:13;;;;;;;8.77;2.47;;;;;;;10.45;78.00;100942.78;7386501;19;20375;-66
2022/04/25 01:58:40;;;;;;;5.35;1.65;;;;;;;10.44;77.98;100944.59;7385393;19;20114;-66
2022/04/25 02:01:12;;;;;;;10.32;3.10;;;;;;;10.47;78.20;100944.28;7385403;19;20090;-66
2022/04/25 02:03:43;;;;;;;10.50;2.55;;;;;;;10.37;78.01;100942.69;7383525;19;20019;-66
2022/04/25 02:06:10;;;;;;;9.35;4.20;;;;;;;10.31;78.80;100940.66;7380672;19;20077;-65
2022/04/25 02:08:37;;;;;;;8.38;2.45;;;;;;;10.32;79.19;100943.13;7382814;19;20026;-66
2022/04/25 02:11:25;;;;;;;8.52;2.13;;;;;;;10.32;79.05;100944.94;7386319;19;20066;-64
2022/04/25 02:13:52;;;;;;;13.88;3.25;;;;;;;10.31;79.09;100949.34;7392786;19;20535;-66
2022/04/25 02:16:23;;;;;;;6.53;2.50;;;;;;;10.32;79.03;100940.50;7362307;19;20029;-65
2022/04/25 02:18:52;;;;;;;12.88;2.70;;;;;;;10.30;79.25;100942.47;7389619;19;20015;-65
2022/04/25 02:21:19;;;;;;;14.75;2.65;;;;;;;10.27;79.28;100945.38;7391809;19;20027;-63
2022/04/25 02:23:47;;;;;;;10.45;2.55;;;;;;;10.25;79.41;100942.09;7389980;19;20515;-63
2022/04/25 02:26:14;;;;;;;14.50;2.95;;;;;;;10.21;79.76;100938.91;7388818;19;20461;-65
2022/04/25 02:28:41;;;;;;;10.32;2.92;;;;;;;10.17;79.98;100928.84;7385544;19;20055;-66
2022/04/25 02:31:08;;;;;;;9.73;3.10;;;;;;;10.17;80.27;100921.78;7392623;19;20035;-66
2022/04/25 02:33:36;;;;;;;10.00;3.00;;;;;;;10.18;80.23;100923.44;7392631;19;20010;-63
2022/04/25 02:36:04;;;;;;;15.27;3.53;;;;;;;10.19;79.99;100924.25;7391077;19;20015;-66
2022/04/25 02:38:33;;;;;;;12.95;3.55;;;;;;;10.17;80.03;100931.47;7390159;19;20066;-65
2022/04/25 02:41:06;;;;;;;10.20;4.57;;;;;;;10.19;80.36;100929.53;7389463;19;20431;-64
2022/04/25 02:43:37;;;;;;;;;;;;;;;10.20;80.40;100926.75;7386366;19;20412;-64
2022/04/25 02:46:06;;;;;;;10.10;3.90;;;;;;;10.23;79.92;100930.88;7386379;19;19919;-64
2022/04/25 02:48:34;;;;;;;10.43;3.88;;;;;;;10.25;79.88;100929.78;7390111;19;20498;-64
2022/04/25 02:51:03;;;;;;;7.45;3.08;;;;;;;10.26;79.59;100927.94;7389250;19;20428;-65
2022/04/25 02:53:31;;;;;;;12.77;3.90;;;;;;;10.22;79.63;100930.03;7389123;19;20006;-62
2022/04/25 02:55:59;;;;;;;10.55;3.00;;;;;;;10.25;79.58;100918.41;7391022;19;20018;-64
2022/04/25 02:58:26;;;;;;;10.55;3.47;;;;;;;10.25;79.09;100926.31;7388813;19;20118;-63
2022/04/25 03:00:53;;;;;;;12.00;4.13;;;;;;;10.22;80.11;100922.16;7387372;19;20021;-66
2022/04/25 03:03:20;;;;;;;11.07;3.53;;;;;;;10.24;79.30;100925.47;7391101;19;20014;-62
2022/04/25 03:05:49;;;;;;;10.90;3.10;;;;;;;10.24;79.59;100920.22;7387251;19;20034;-66
2022/04/25 03:08:21;;;;;;;7.72;3.20;;;;;;;10.25;78.88;100921.06;7391285;19;20069;-65
2022/04/25 03:10:51;;;;;;;9.97;3.33;;;;;;;10.10;79.36;100909.34;7385252;19;20012;-64
2022/04/25 03:13:19;;;;;;;15.73;4.65;;;;;;;10.02;80.14;100911.88;7388431;19;20090;-63
2022/04/25 03:15:47;;;;;;;10.45;2.47;;;;;;;10.01;79.85;100911.03;7365705;19;20013;-65
2022/04/25 03:18:18;;;;;;;12.02;3.78;;;;;;;10.00;79.77;100911.22;7380384;19;20011;-64
2022/04/25 03:20:48;;;;;;;10.38;3.58;;;;;;;9.93;79.88;100913.59;7390906;19;20098;-64
2022/04/25 03:23:16;;;;;;;9.88;3.60;;;;;;;9.87;80.09;100909.75;7387705;19;20070;-63
2022/04/25 03:25:43;;;;;;;14.98;4.43;;;;;;;9.88;80.43;100916.66;7385606;19;20021;-64
2022/04/25 03:28:10;;;;;;;11.60;3.15;;;;;;;9.87;79.96;100916.78;7387000;19;20524;-65
2022/04/25 03:30:38;;;;;;;15.13;4.28;;;;;;;9.91;80.16;100914.69;7385826;19;20502;-65
2022/04/25 03:33:05;;;;;;;13.65;3.08;;;;;;;9.84;80.19;100917.94;7389524;19;20014;-64
2022/04/25 03:35:32;;;;;;;11.13;3.10;;;;;;;9.77;80.18;100921.28;7391180;19;20009;-65
2022/04/25 03:37:59;;;;;;;13.25;3.17;;;;;;;9.68;80.82;100920.34;7385878;19;20021;-65
2022/04/25 03:40:26;;;;;;;12.68;3.40;;;;;;;9.65;80.80;100922.44;7390304;19;20014;-65
2022/04/25 03:42:55;;;;;;;10.25;2.95;;;;;;;9.67;80.76;100920.47;7385593;19;20010;-63
2022/04/25 03:45:22;;;;;;;15.25;4.22;;;;;;;9.68;81.07;100914.25;7388035;19;20563;-65
2022/04/25 03:47:49;;;;;;;11.60;4.05;;;;;;;9.70;80.80;100913.13;7388540;19;20356;-63
2022/04/25 03:50:16;;;;;;;12.60;4.03;;;;;;;9.73;80.39;100910.22;7388665;19;20146;-64
2022/04/25 03:52:45;;;;;;;19.35;4.60;;;;;;;9.75;80.32;100905.63;7387548;19;20109;-67
2022/04/25 03:58:00;;;;;;;27.83;4.32;;;;;;;9.78;80.40;100908.00;7385764;19;20236;-63
2022/04/25 04:00:27;;;;;;;15.68;3.90;;;;;;;9.78;80.22;100907.16;7386925;19;20412;-65
2022/04/25 04:02:55;;;;;;;11.32;3.53;;;;;;;9.76;80.53;100915.19;7388345;19;20361;-63
2022/04/25 04:05:22;;;;;;;9.93;4.22;;;;;;;9.68;80.79;100911.63;7387172;19;20018;-64
2022/04/25 04:07:49;;;;;;;8.40;3.17;;;;;;;9.65;81.19;100922.44;7385711;19;20026;-65
2022/04/25 04:10:18;;;;;;;11.18;3.15;;;;;;;9.64;81.23;100920.78;7389099;19;20018;-68
2022/04/25 04:12:46;;;;;;;8.27;3.20;;;;;;;9.69;81.15;100923.81;7385114;19;20447;-64
2022/04/25 04:15:15;;;;;;;11.68;3.92;;;;;;;9.70;80.99;100917.59;7367161;19;20579;-65
2022/04/25 04:17:43;;;;;;;8.50;3.40;;;;;;;9.65;81.74;100925.06;7378265;19;20318;-67
2022/04/25 04:20:12;;;;;;;10.30;3.25;;;;;;;9.64;81.58;100920.78;7387489;19;20433;-64
2022/04/25 04:22:40;;;;;;;9.68;4.13;;;;;;;9.64;81.79;100928.66;7385556;19;20014;-62
2022/04/25 04:25:16;;;;;;;15.60;3.90;;;;;;;9.66;82.12;100931.97;7386373;19;20374;-65
2022/04/25 04:27:43;;;;;;;14.52;3.67;;;;;;;9.61;82.06;100927.13;7386760;19;20018;-63
2022/04/25 04:30:15;;;;;;;7.93;4.00;;;;;;;9.64;82.78;100926.88;7384595;19;20019;-67
2022/04/25 04:32:43;;;;;;;11.73;3.70;;;;;;;9.63;82.25;100927.84;7384124;19;20764;-63
2022/04/25 04:38:01;;;;;;;16.50;3.90;;;;;;;9.72;82.15;100926.13;7385695;19;20011;-66
2022/04/25 04:40:31;;;;;;;18.95;4.63;;;;;;;9.70;81.83;100933.34;7387071;19;20025;-63
2022/04/25 04:42:58;;;;;;;13.05;6.00;;;;;;;9.71;82.08;100929.72;7381098;19;20186;-64
2022/04/25 04:45:26;;;;;;;15.93;4.00;;;;;;;9.75;82.28;100931.13;7382327;19;20021;-64
2022/04/25 04:47:53;;;;;;;12.18;3.90;;;;;;;9.81;81.53;100941.84;7383288;19;20014;-63
2022/04/25 04:50:20;;;;;;;16.08;3.88;;;;;;;9.83;81.36;100933.84;7387583;19;20014;-64
2022/04/25 04:52:49;;;;;;;9.68;3.70;;;;;;;9.84;81.85;100944.22;7384238;19;20025;-66
2022/04/25 04:55:16;;;;;;;10.43;3.83;;;;;;;9.88;81.50;100940.31;7385599;19;20137;-63
2022/04/25 04:57:43;;;;;;;13.18;5.05;;;;;;;9.92;81.90;100943.47;7388265;19;20010;-64
2022/04/25 05:00:16;;;;;;;15.43;3.80;;;;;;;9.96;80.91;100949.25;7387874;19;20374;-64
2022/04/25 05:02:44;;;;;;;12.95;4.20;;;;;;;9.90;80.96;100955.94;7387320;19;20102;-65
2022/04/25 05:05:13;;;;;;;13.23;4.43;;;;;;;9.88;81.24;100961.34;7386682;19;20022;-65
2022/04/25 05:07:40;;;;;;;9.57;3.78;;;;;;;9.88;81.51;100963.97;7384948;19;20007;-66
2022/04/25 05:10:08;;;;;;;16.33;4.07;;;;;;;9.85;81.65;100963.44;7385687;19;20014;-64
2022/04/25 05:12:50;;;;;;;14.00;3.95;;;;;;;9.82;81.75;100958.44;7384682;19;20361;-64
2022/04/25 05:15:20;;;;;;;12.80;4.30;;;;;;;9.81;81.91;100957.63;7361299;19;20519;-64
2022/04/25 05:17:48;;;;;;;9.07;3.63;;;;;;;9.83;82.64;100963.56;7378606;19;20445;-63
2022/04/25 05:20:17;;;;;;;18.45;4.30;;;;;;;9.91;81.75;100968.09;7383628;19;20019;-64
2022/04/25 05:22:46;;;;;;;8.70;3.65;;;;;;;9.96;81.77;100965.03;7386713;19;20298;-64
2022/04/25 05:25:20;;;;;;;11.32;3.53;;;;;;;10.02;81.21;100954.75;7384499;19;20014;-67
2022/04/25 05:27:53;;;;;;;13.07;3.83;;;;;;;10.08;80.99;100963.88;7386643;19;20018;-65
2022/04/25 05:30:22;;;;;;;11.77;3.67;;;;;;;10.13;80.56;100967.72;7383307;19;20014;-66
2022/04/25 05:32:55;;;;;;;11.90;3.70;;;;;;;10.15;80.43;100964.94;7382019;19;20335;-63
2022/04/25 05:35:25;;;;;;;9.70;4.00;;;;;;;10.17;81.00;100966.47;7386975;19;20022;-65
2022/04/25 05:37:52;;;;;;;15.35;4.10;;;;;;;10.20;80.22;100970.63;7385248;19;20029;-65
2022/04/25 05:40:20;;;;;;;9.60;4.22;;;;;;;10.23;79.95;100967.69;7381846;19;20007;-64
2022/04/25 05:42:49;;;;;;;11.13;4.35;;;;;;;10.25;80.86;100968.38;7382529;19;20003;-65
2022/04/25 05:45:18;;;;;;;12.55;4.20;;;;;;;10.31;79.95;100980.91;7386198;19;20090;-63
2022/04/25 05:47:46;;;;;;;14.70;6.68;;;;;;;10.34;79.92;100977.19;7392294;19;20022;-65
2022/04/25 05:53:01;;;;;;;9.82;3.35;;;;;;;10.41;78.88;100979.09;7391068;19;20045;-67
2022/04/25 05:55:31;;;;;;;17.45;4.18;;;;;;;10.42;79.33;100977.25;7390967;19;20407;-66
2022/04/25 05:58:00;;;;;;;15.73;3.40;;;;;;;10.41;79.40;100979.09;7390427;19;20515;-62
2022/04/25 06:00:28;;;;;;;14.02;3.45;;;;;;;10.40;78.91;100974.78;7390247;19;20011;-64
2022/04/25 06:02:55;;;;;;;9.73;3.00;;;;;;;10.41;79.19;100984.34;7391902;19;20007;-67
2022/04/25 06:05:23;;;;;;;10.15;3.10;;;;;;;10.43;78.24;100986.81;7394096;19;20310;-64
2022/04/25 06:07:50;;;;;;;10.60;3.35;;;;;;;10.42;78.68;100980.72;7391802;19;20421;-66
2022/04/25 06:10:19;;;;;;;9.70;2.40;;;;;;;10.39;78.89;100991.53;7393338;19;20074;-65
2022/04/25 06:12:52;;;;;;;13.90;3.65;;;;;;;10.45;78.45;100993.59;7392170;19;20777;-66
2022/04/25 06:15:21;;;;;;;10.93;3.15;;;;;;;10.49;77.92;100994.94;7393225;19;20007;-63
2022/04/25 06:17:59;;;;;;;11.88;2.78;;;;;;;10.52;77.65;100992.00;7391757;19;20433;-64
2022/04/25 06:20:30;;;;;;;15.65;3.00;;;;;;;10.59;77.47;100984.34;7392407;19;20010;-65
2022/04/25 06:22:59;;;;;;;8.90;3.00;;;;;;;10.62;77.22;100994.56;7390395;19;20033;-64
2022/04/25 06:25:27;;;;;;;8.88;4.03;;;;;;;10.60;76.92;101001.81;7390908;19;20017;-65
2022/04/25 06:27:57;;;;;;;8.15;2.67;;;;;;;10.62;77.23;100997.19;7389682;19;20035;-65
2022/04/25 06:30:28;;;;;;;10.20;3.10;;;;;;;10.62;77.31;100997.19;7391282;19;20467;-67
2022/04/25 06:32:59;;;;;;;6.63;2.45;;;;;;;10.67;76.99;101001.03;7393122;19;20038;-67
2022/04/25 06:35:27;;;;;;;10.40;2.13;;;;;;;10.70;76.40;101000.75;7388213;19;20013;-65
2022/04/25 06:37:54;;;;;;;9.80;3.10;;;;;;;10.73;76.45;101005.72;7389051;19;20059;-66
2022/04/25 06:40:21;;;;;;;9.55;2.10;;;;;;;10.75;75.79;101008.22;7392992;19;20007;-64
2022/04/25 06:42:51;;;;;;;10.32;2.55;;;;;;;10.70;76.07;101016.56;7389684;19;20014;-64
2022/04/25 06:45:18;;;;;;;9.80;2.28;;;;;;;10.71;76.22;101012.13;7387958;19;20003;-63
2022/04/25 06:47:45;;;;;;;10.07;2.65;;;;;;;10.67;76.03;101011.56;7388806;19;20511;-66
2022/04/25 06:50:12;;;;;;;7.50;1.95;;;;;;;10.60;75.81;101018.41;7390607;19;20013;-68
2022/04/25 06:52:40;;;;;;;4.53;1.80;;;;;;;10.58;75.74;101019.53;7389135;19;20045;-63
2022/04/25 06:55:07;;;;;;;9.23;2.05;;;;;;;10.68;75.76;101015.03;7391138;19;20492;-65
2022/04/25 06:57:35;;;;;;;8.40;2.08;;;;;;;10.69;75.36;101022.78;7385380;19;20041;-64
2022/04/25 07:00:11;;;;;;;8.77;1.83;;;;;;;10.72;75.46;101025.09;7389893;19;20378;-64
2022/04/25 07:02:57;;;;;;;8.27;1.73;;;;;;;10.75;75.52;101021.38;7389695;19;20034;-65
2022/04/25 07:05:25;;;;;;;6.70;1.80;;;;;;;10.81;75.92;101025.22;7392119;19;20014;-65
2022/04/25 07:07:52;;;;;;;8.55;2.00;;;;;;;10.81;74.87;101031.31;7388496;19;20424;-65
2022/04/25 07:10:19;;;;;;;10.90;2.10;;;;;;;10.84;75.04;101035.44;7390966;19;20079;-66
2022/04/25 07:12:46;;;;;;;7.20;1.70;;;;;;;10.83;74.94;101036.41;7391518;19;20077;-65
2022/04/25 07:15:13;;;;;;;4.93;1.20;;;;;;;10.90;74.47;101032.22;7386286;19;20007;-67
2022/04/25 07:17:40;;;;;;;6.53;1.70;;;;;;;10.84;74.69;101038.06;7387186;19;20019;-65
2022/04/25 07:20:07;;;;;;;5.80;1.77;;;;;;;10.81;74.34;101041.84;7389187;19;20081;-65
2022/04/25 07:30:53;;;;;;;14.45;2.42;;;;;;;10.82;74.69;101043.47;7387345;19;20393;-64
2022/04/25 07:33:20;;;;;;;10.68;2.20;;;;;;;10.90;75.17;101050.63;7390780;19;20490;-64
2022/04/25 07:35:47;;;;;;;7.43;1.35;;;;;;;11.01;74.23;101053.06;7388951;19;20013;-67
2022/04/25 07:38:14;;;;;;;8.18;1.65;;;;;;;11.10;73.41;101046.88;7386965;19;20034;-64
2022/04/25 07:40:41;;;;;;;9.75;1.65;;;;;;;11.11;73.09;101052.00;7389607;19;20464;-64
2022/04/25 07:43:10;;;;;;;5.85;1.75;;;;;;;11.18;72.48;101052.19;7384568;19;20496;-68
2022/04/25 07:45:37;;;;;;;10.18;1.90;;;;;;;11.16;73.26;101048.91;7386746;19;20515;-65
2022/04/25 07:48:05;;;;;;;6.68;1.95;;;;;;;11.22;72.71;101056.22;7387665;19;20038;-64
2022/04/25 07:50:32;;;;;;;13.80;2.13;;;;;;;11.24;72.36;101051.59;7391987;19;20110;-66
2022/04/25 07:52:58;;;;;;;5.93;1.40;;;;;;;11.18;72.12;101056.63;7387919;19;20010;-66
2022/04/25 07:55:25;;;;;;;10.80;1.58;;;;;;;11.18;72.51;101057.47;7388057;19;20010;-64
2022/04/25 07:57:52;;;;;;;9.88;2.08;;;;;;;11.13;72.73;101057.94;7386944;19;20018;-66
2022/04/25 08:00:19;;;;;;;10.15;1.58;;;;;;;11.07;72.82;101057.72;7387672;19;20030;-63
2022/04/25 08:02:46;;;;;;;10.07;2.30;;;;;;;11.10;76.14;101062.69;7390536;19;20011;-67
2022/04/25 08:05:13;;;;;;;7.78;2.30;;;;;;;11.11;74.22;101059.91;7391654;19;20010;-64
2022/04/25 08:07:40;;;;;;;11.23;2.33;;;;;;;11.15;73.76;101065.69;7388002;19;20468;-66
2022/04/25 08:10:07;;;;;;;8.20;2.13;;;;;;;11.18;73.37;101064.53;7388631;19;20028;-64
2022/04/25 08:18:06;;;;;;;9.38;2.33;;;;;;;11.17;72.82;101073.44;7386682;19;20015;-66
2022/04/25 08:20:37;;;;;;;8.68;2.75;;;;;;;11.09;72.95;101066.28;7387448;19;20031;-66
2022/04/25 08:23:08;;;;;;;10.48;1.77;;;;;;;11.06;73.07;101070.06;7387445;19;20074;-65
2022/04/25 08:25:35;;;;;;;6.53;1.55;;;;;;;11.01;72.81;101074.94;7388371;19;20019;-65
2022/04/25 08:28:04;;;;;;;7.85;2.35;;;;;;;11.01;74.28;101076.75;7387244;19;20015;-65
2022/04/25 08:30:31;;;;;;;7.50;2.08;;;;;;;11.01;72.86;101082.84;7391032;19;20011;-66
2022/04/25 08:32:59;;;;;;;6.78;2.28;;;;;;;11.03;72.78;101077.41;7390351;19;20016;-65
2022/04/25 08:35:26;;;;;;;11.98;1.92;;;;;;;11.07;72.74;101089.31;7385275;19;20029;-65
2022/04/25 08:37:57;;;;;;;7.32;1.60;;;;;;;11.08;72.10;101083.06;7390300;19;20338;-67
2022/04/25 08:40:25;;;;;;;7.95;1.58;;;;;;;11.15;72.46;101084.94;7386213;19;20464;-66
2022/04/25 08:42:55;;;;;;;9.05;2.85;;;;;;;11.16;72.58;101085.78;7383225;19;20027;-64
2022/04/25 08:45:23;;;;;;;11.70;2.10;;;;;;;11.22;72.34;101079.91;7386101;19;20114;-66
2022/04/25 08:47:58;;;;;;;7.70;1.88;;;;;;;11.32;72.06;101090.38;7384202;19;20018;-67
2022/04/25 08:50:28;;;;;;;4.10;1.60;;;;;;;11.34;71.45;101096.31;7390019;19;20034;-65
2022/04/25 08:52:56;;;;;;;5.97;1.83;;;;;;;11.34;70.86;101097.13;7388718;19;20021;-65
2022/04/25 08:55:26;;;;;;;6.00;2.30;;;;;;;11.39;70.67;101099.31;7383844;19;20025;-65
2022/04/25 08:57:55;;;;;;;10.05;2.53;;;;;;;11.45;70.94;101096.91;7388347;19;20018;-64
2022/04/25 09:00:22;;;;;;;9.90;3.38;;;;;;;11.45;70.66;101091.63;7385402;19;20036;-65
2022/04/25 09:02:49;;;;;;;8.75;1.95;;;;;;;11.46;70.36;101103.00;7387026;19;20416;-64
2022/04/25 09:05:17;;;;;;;9.55;2.42;;;;;;;11.39;70.78;101097.50;7386769;19;20019;-65
2022/04/25 09:07:45;;;;;;;11.02;2.70;;;;;;;11.42;70.90;101101.66;7382576;19;20452;-66
2022/04/25 09:10:14;;;;;;;6.88;1.90;;;;;;;11.42;71.06;101110.41;7385511;19;20111;-67
2022/04/25 09:12:45;;;;;;;12.32;3.33;;;;;;;11.46;71.45;101101.22;7383834;19;20015;-64
2022/04/25 09:15:22;;;;;;;6.43;2.42;;;;;;;11.49;70.48;101103.53;7388042;19;20045;-68
2022/04/25 09:17:54;;;;;;;11.70;3.40;;;;;;;11.52;69.94;101103.25;7385447;19;20043;-64
2022/04/25 09:20:23;;;;;;;10.98;2.03;;;;;;;11.54;69.66;101111.81;7382653;19;20034;-62
2022/04/25 09:22:50;;;;;;;9.73;2.00;;;;;;;11.53;69.77;101123.31;7385959;19;20891;-64
2022/04/25 09:25:18;;;;;;;9.50;1.67;;;;;;;11.54;70.23;101113.59;7387236;19;20006;-63
2022/04/25 09:28:11;;;;;;;9.10;3.75;;;;;;;11.57;70.66;101122.06;7386312;19;20322;-65
2022/04/25 09:30:39;;;;;;;5.40;1.90;;;;;;;11.62;69.56;101118.97;7388718;19;20022;-66
2022/04/25 09:33:32;;;;;;;6.53;1.75;;;;;;;11.61;69.76;101121.75;7387785;19;20045;-64
2022/04/25 09:35:59;;;;;;;7.55;1.50;;;;;;;11.62;69.44;101123.41;7387499;19;20149;-66
2022/04/25 09:38:30;;;;;;;14.82;4.55;;;;;;;11.63;70.27;101125.06;7384671;19;20007;-66
2022/04/25 09:40:57;;;;;;;7.65;1.75;;;;;;;11.70;69.42;101126.09;7386495;19;20110;-66
2022/04/25 09:43:30;;;;;;;8.13;1.90;;;;;;;11.70;70.20;101129.56;7380150;19;20504;-65
2022/04/25 09:46:08;;;;;;;10.98;4.35;;;;;;;11.70;70.30;101136.63;7386620;19;20086;-66
2022/04/25 09:48:39;;;;;;;9.65;2.60;;;;;;;11.74;70.15;101136.22;7384459;19;20658;-66
2022/04/25 09:51:17;;;;;;;6.45;2.20;;;;;;;11.77;68.48;101140.38;7384440;19;20094;-63
2022/04/25 09:53:52;;;;;;;4.82;1.80;;;;;;;11.75;68.49;101140.50;7382229;19;20098;-65
2022/04/25 09:56:29;;;;;;;5.80;1.50;;;;;;;11.78;68.41;101134.94;7383076;19;20014;-66
2022/04/25 09:59:06;;;;;;;9.48;1.80;;;;;;;11.81;68.01;101139.06;7382187;19;20062;-63
2022/04/25 10:01:39;;;;;;;5.18;1.38;;;;;;;11.79;67.91;101136.56;7382804;19;20078;-66
2022/04/25 10:04:32;;;;;;;8.98;1.42;;;;;;;11.88;67.72;101129.56;7385063;19;20011;-65
2022/04/25 10:07:06;;;;;;;13.38;2.45;;;;;;;11.94;68.10;101132.41;7381956;19;20027;-66
2022/04/25 10:09:36;;;;;;;7.10;1.60;;;;;;;12.07;67.33;101128.53;7381672;19;20746;-66
2022/04/25 10:12:05;;;;;;;9.70;1.60;;;;;;;12.24;66.47;101132.94;7382289;19;20106;-66
2022/04/25 10:14:33;;;;;;;7.68;1.73;;;;;;;12.48;65.45;101126.97;7384405;19;20575;-66
2022/04/25 10:17:00;;;;;;;8.80;1.60;;;;;;;12.64;64.90;101130.53;7382169;19;20131;-67
2022/04/25 10:19:28;;;;;;;5.88;1.50;;;;;;;12.74;64.81;101133.84;7382134;19;20014;-67
2022/04/25 10:21:56;;;;;;;10.90;1.65;;;;;;;12.86;64.48;101129.91;7383836;19;20010;-65
2022/04/25 10:24:29;;;;;;;5.18;1.38;;;;;;;13.04;64.43;101132.47;7387646;19;20352;-65
2022/04/25 10:27:07;;;;;;;4.65;1.77;;;;;;;13.20;63.30;101143.13;7380946;19;20011;-64
2022/04/25 10:29:37;;;;;;;8.82;1.58;;;;;;;13.16;62.09;101144.41;7385679;19;20019;-64
2022/04/25 10:32:08;;;;;;;8.23;1.70;;;;;;;13.13;62.50;101138.63;7389899;19;20014;-64
2022/04/25 10:34:46;;;;;;;7.18;1.52;;;;;;;13.12;62.89;101156.28;7391833;19;20330;-64
2022/04/25 10:37:35;;;;;;;5.43;1.90;;;;;;;13.15;62.72;101148.06;7394105;19;20026;-65
2022/04/25 10:40:13;;;;;;;5.55;1.92;;;;;;;13.18;62.64;101153.00;7392504;19;20452;-63
2022/04/25 10:45:59;;;;;;;6.25;1.75;;;;;;;13.35;62.68;101150.41;7390999;19;20038;-65
2022/04/25 10:48:49;;;;;;;7.90;2.08;;;;;;;13.42;61.76;101157.50;7393467;19;20011;-65
2022/04/25 10:51:17;;;;;;;6.50;1.50;;;;;;;13.45;62.69;101157.19;7393201;19;20105;-63
2022/04/25 10:53:59;;;;;;;8.63;2.42;;;;;;;13.54;61.88;101153.56;7392094;19;20078;-64
2022/04/25 10:56:30;;;;;;;5.40;1.55;;;;;;;13.48;61.49;101148.09;7392266;19;20025;-65
2022/04/25 10:59:23;;;;;;;7.35;1.45;;;;;;;13.57;60.90;101157.69;7389955;19;20033;-63
2022/04/25 11:01:51;;;;;;;9.63;1.80;;;;;;;13.58;60.92;101161.97;7391954;19;20013;-65
2022/04/25 11:04:20;;;;;;;6.63;1.65;;;;;;;13.61;60.17;101157.19;7391453;19;20376;-65
2022/04/25 11:07:23;;;;;;;10.27;2.43;;;;;;;13.66;60.92;101156.72;7390848;19;20049;-63
2022/04/25 11:09:51;;;;;;;3.63;1.40;;;;;;;13.65;60.49;101163.81;7387553;19;20014;-65
2022/04/25 11:12:19;;;;;;;5.78;1.90;;;;;;;13.52;60.76;101158.19;7392213;19;20014;-65
2022/04/25 11:15:00;;;;;;;6.07;1.50;;;;;;;13.48;60.62;101159.50;7390209;19;20051;-65
2022/04/25 11:17:28;;;;;;;4.75;2.17;;;;;;;13.54;60.58;101158.84;7390391;19;20014;-65
2022/04/25 11:19:56;;;;;;;6.97;1.80;;;;;;;13.61;61.20;101159.03;7393177;19;20460;-65
2022/04/25 11:22:36;;;;;;;3.95;1.73;;;;;;;13.70;61.68;101150.09;7394390;19;20018;-67
2022/04/25 11:25:30;;;;;;;5.93;1.55;;;;;;;13.90;59.47;101161.19;7392378;19;20042;-66
2022/04/25 11:28:11;;;;;;;5.65;1.23;;;;;;;13.98;58.59;101158.50;7386163;19;20100;-65
2022/04/25 11:30:40;;;;;;;7.55;1.98;;;;;;;13.81;58.68;101151.59;7391633;19;20018;-66
2022/04/25 11:33:09;;;;;;;8.13;1.63;;;;;;;13.83;59.09;101141.66;7392855;19;20014;-63
2022/04/25 11:35:39;;;;;;;5.25;1.48;;;;;;;13.89;58.03;101144.47;7388130;19;20051;-63
2022/04/25 11:38:06;;;;;;;4.60;1.00;;;;;;;13.95;57.06;101132.41;7386962;19;20006;-65
2022/04/25 11:40:34;;;;;;;6.03;1.77;;;;;;;14.12;57.78;101145.44;7389043;19;20019;-65
2022/04/25 11:43:03;;;;;;;4.38;1.45;;;;;;;14.28;54.67;101136.63;7386695;19;20010;-64
2022/04/25 11:45:31;;;;;;;6.15;1.50;;;;;;;14.24;54.12;101134.50;7394738;19;20040;-65
2022/04/25 11:48:00;;;;;;;4.18;1.30;;;;;;;14.18;54.61;101135.16;7387043;19;20018;-66
2022/04/25 11:50:28;;;;;;;5.00;1.27;;;;;;;14.19;55.23;101131.53;7391401;19;20011;-66
2022/04/25 11:52:56;;;;;;;5.32;1.30;;;;;;;14.28;55.63;101135.81;7386346;19;20472;-66
2022/04/25 11:55:34;;;;;;;4.07;1.60;;;;;;;14.43;55.21;101128.84;7389438;19;20044;-63
2022/04/25 11:58:03;;;;;;;4.63;1.40;;;;;;;14.46;55.17;101123.22;7386195;19;20025;-65
2022/04/25 12:00:31;;;;;;;7.13;1.80;;;;;;;14.47;55.34;101124.88;7388063;19;20031;-65
2022/04/25 12:03:01;;;;;;;7.38;1.75;;;;;;;14.46;55.32;101133.81;7389373;19;20471;-63
2022/04/25 12:05:31;;;;;;;5.45;1.08;;;;;;;14.43;55.80;101131.50;7389769;19;20010;-66
2022/04/25 12:16:28;;;;;;;6.97;1.95;;;;;;;14.55;55.58;101132.78;7388564;19;20013;-62